createdAt,value
2022-09-28T00:00:56.755Z,976.41
2022-09-28T00:01:56.856Z,976.44
2022-09-28T00:02:56.734Z,976.34
2022-09-28T00:03:56.673Z,976.37
2022-09-28T00:04:56.661Z,976.34
2022-09-28T00:05:56.627Z,976.33
2022-09-28T00:06:56.607Z,976.30
2022-09-28T00:07:56.572Z,976.25
2022-09-28T00:08:56.555Z,976.28
2022-09-28T00:09:56.574Z,976.25
2022-09-28T00:10:56.512Z,976.21
2022-09-28T00:11:56.493Z,976.18
2022-09-28T00:12:56.490Z,976.15
2022-09-28T00:13:56.445Z,976.11
2022-09-28T00:14:56.427Z,976.11
2022-09-28T00:15:56.412Z,976.11
2022-09-28T00:16:56.374Z,976.08
2022-09-28T00:17:56.374Z,976.11
2022-09-28T00:18:56.395Z,976.02
2022-09-28T00:19:56.292Z,976.05
2022-09-28T00:20:56.273Z,976.04
2022-09-28T00:21:56.267Z,975.96
2022-09-28T00:22:56.220Z,975.99
2022-09-28T00:23:56.200Z,975.95
2022-09-28T00:24:56.181Z,975.95
2022-09-28T00:25:56.155Z,975.96
2022-09-28T00:26:56.168Z,975.87
2022-09-28T00:27:56.116Z,975.82
2022-09-28T00:28:56.079Z,975.78
2022-09-28T00:29:56.060Z,975.76
2022-09-28T00:30:56.031Z,975.69
2022-09-28T00:31:56.021Z,975.65
2022-09-28T00:32:55.982Z,975.63
2022-09-28T00:33:55.969Z,975.59
2022-09-28T00:34:55.933Z,975.61
2022-09-28T00:35:55.908Z,975.58
2022-09-28T00:36:55.896Z,975.52
2022-09-28T00:37:55.886Z,975.50
2022-09-28T00:38:55.843Z,975.49
2022-09-28T00:39:55.814Z,975.46
2022-09-28T00:40:55.893Z,975.44
2022-09-28T00:41:55.770Z,975.40
2022-09-28T00:42:55.741Z,975.39
2022-09-28T00:43:55.729Z,975.41
2022-09-28T00:44:55.713Z,975.41
2022-09-28T00:45:55.720Z,975.42
2022-09-28T00:46:55.671Z,975.42
2022-09-28T00:47:55.630Z,975.35
2022-09-28T00:48:55.613Z,975.30
2022-09-28T00:49:55.591Z,975.34
2022-09-28T00:50:55.563Z,975.36
2022-09-28T00:51:55.540Z,975.36
2022-09-28T00:52:55.522Z,975.33
2022-09-28T00:53:55.490Z,975.33
2022-09-28T00:54:55.462Z,975.34
2022-09-28T00:55:55.442Z,975.30
2022-09-28T00:56:55.414Z,975.30
2022-09-28T00:57:55.511Z,975.30
2022-09-28T00:58:55.401Z,975.34
2022-09-28T00:59:55.336Z,975.31
2022-09-28T01:00:55.330Z,975.29
2022-09-28T01:01:55.475Z,975.28
2022-09-28T01:02:55.364Z,975.20
2022-09-28T01:04:55.266Z,975.16
2022-09-28T01:05:55.227Z,975.15
2022-09-28T01:06:55.265Z,975.11
2022-09-28T01:07:55.237Z,975.11
2022-09-28T01:08:55.130Z,975.10
2022-09-28T01:09:55.112Z,975.07
2022-09-28T01:10:55.072Z,975.02
2022-09-28T01:11:55.054Z,974.99
2022-09-28T01:12:55.035Z,974.99
2022-09-28T01:13:54.995Z,974.96
2022-09-28T01:14:54.981Z,975.01
2022-09-28T01:15:55.023Z,975.00
2022-09-28T01:16:54.926Z,974.96
2022-09-28T01:17:54.903Z,974.92
2022-09-28T01:18:54.881Z,974.91
2022-09-28T01:19:54.857Z,974.90
2022-09-28T01:20:54.842Z,974.89
2022-09-28T01:21:54.812Z,974.88
2022-09-28T01:22:54.796Z,974.86
2022-09-28T01:23:54.768Z,974.83
2022-09-28T01:24:54.740Z,974.80
2022-09-28T01:25:54.711Z,974.77
2022-09-28T01:26:54.685Z,974.79
2022-09-28T01:27:54.661Z,974.74
2022-09-28T01:28:54.722Z,974.75
2022-09-28T01:29:54.764Z,974.75
2022-09-28T01:30:54.601Z,974.78
2022-09-28T01:31:54.612Z,974.74
2022-09-28T01:32:54.550Z,974.73
2022-09-28T01:33:54.519Z,974.73
2022-09-28T01:34:54.497Z,974.73
2022-09-28T01:35:54.474Z,974.66
2022-09-28T01:36:54.445Z,974.68
2022-09-28T01:37:54.424Z,974.60
2022-09-28T01:38:54.413Z,974.57
2022-09-28T01:39:54.381Z,974.59
2022-09-28T01:40:54.421Z,974.52
2022-09-28T01:41:54.376Z,974.52
2022-09-28T01:42:54.307Z,974.53
2022-09-28T01:43:54.287Z,974.52
2022-09-28T01:44:54.261Z,974.51
2022-09-28T01:45:54.380Z,974.51
2022-09-28T01:46:54.218Z,974.47
2022-09-28T01:47:54.195Z,974.45
2022-09-28T01:48:54.169Z,974.45
2022-09-28T01:49:54.143Z,974.42
2022-09-28T01:50:54.107Z,974.39
2022-09-28T01:51:54.100Z,974.42
2022-09-28T01:52:54.099Z,974.44
2022-09-28T01:53:54.043Z,974.43
2022-09-28T01:54:54.017Z,974.41
2022-09-28T01:55:54.003Z,974.40
2022-09-28T01:56:53.966Z,974.40
2022-09-28T01:57:53.961Z,974.35
2022-09-28T01:58:53.917Z,974.36
2022-09-28T01:59:53.897Z,974.37
2022-09-28T02:00:53.909Z,974.35
2022-09-28T02:01:53.920Z,974.33
2022-09-28T02:02:53.825Z,974.32
2022-09-28T02:03:53.796Z,974.32
2022-09-28T02:04:53.775Z,974.31
2022-09-28T02:05:53.751Z,974.34
2022-09-28T02:06:53.729Z,974.35
2022-09-28T02:07:53.708Z,974.35
2022-09-28T02:08:53.684Z,974.32
2022-09-28T02:09:53.673Z,974.30
2022-09-28T02:10:53.639Z,974.34
2022-09-28T02:11:53.610Z,974.30
2022-09-28T02:12:53.591Z,974.25
2022-09-28T02:13:53.574Z,974.31
2022-09-28T02:14:53.546Z,974.26
2022-09-28T02:15:53.588Z,974.27
2022-09-28T02:16:53.503Z,974.30
2022-09-28T02:17:53.468Z,974.28
2022-09-28T02:18:53.444Z,974.29
2022-09-28T02:19:53.423Z,974.32
2022-09-28T02:20:53.459Z,974.29
2022-09-28T02:21:53.370Z,974.30
2022-09-28T02:22:53.357Z,974.26
2022-09-28T02:23:53.328Z,974.27
2022-09-28T02:24:53.305Z,974.25
2022-09-28T02:25:53.282Z,974.21
2022-09-28T02:26:53.259Z,974.21
2022-09-28T02:27:53.233Z,974.19
2022-09-28T02:28:53.205Z,974.20
2022-09-28T02:29:53.186Z,974.20
2022-09-28T02:30:53.165Z,974.25
2022-09-28T02:31:53.198Z,974.20
2022-09-28T02:32:53.110Z,974.22
2022-09-28T02:33:53.094Z,974.24
2022-09-28T02:34:53.063Z,974.20
2022-09-28T02:35:53.246Z,974.14
2022-09-28T02:36:53.015Z,974.12
2022-09-28T02:37:53.022Z,974.05
2022-09-28T02:38:52.981Z,974.06
2022-09-28T02:39:52.940Z,974.04
2022-09-28T02:40:52.953Z,974.06
2022-09-28T02:41:52.901Z,974.04
2022-09-28T02:42:52.873Z,974.06
2022-09-28T02:43:52.847Z,973.99
2022-09-28T02:44:52.820Z,974.00
2022-09-28T02:45:52.845Z,973.99
2022-09-28T02:46:52.779Z,974.00
2022-09-28T02:47:52.756Z,973.97
2022-09-28T02:49:10.507Z,973.98
2022-09-28T02:49:52.710Z,974.00
2022-09-28T02:50:52.692Z,973.95
2022-09-28T02:51:52.670Z,974.00
2022-09-28T02:52:52.633Z,973.89
2022-09-28T02:53:52.612Z,973.93
2022-09-28T02:54:52.586Z,973.97
2022-09-28T02:55:52.570Z,973.96
2022-09-28T02:56:52.537Z,973.97
2022-09-28T02:57:52.523Z,973.94
2022-09-28T02:58:52.497Z,973.96
2022-09-28T02:59:52.480Z,973.95
2022-09-28T03:00:52.479Z,973.98
2022-09-28T03:01:52.492Z,973.91
2022-09-28T03:02:52.396Z,973.92
2022-09-28T03:03:52.378Z,973.90
2022-09-28T03:04:52.357Z,973.92
2022-09-28T03:05:52.335Z,973.95
2022-09-28T03:06:52.311Z,973.85
2022-09-28T03:07:52.288Z,973.94
2022-09-28T03:08:52.268Z,973.96
2022-09-28T03:09:52.263Z,973.89
2022-09-28T03:10:52.219Z,973.89
2022-09-28T03:11:52.187Z,973.95
2022-09-28T03:12:52.160Z,973.95
2022-09-28T03:13:52.135Z,973.94
2022-09-28T03:14:52.135Z,973.91
2022-09-28T03:15:52.099Z,973.89
2022-09-28T03:16:52.077Z,973.93
2022-09-28T03:17:52.046Z,973.88
2022-09-28T03:18:52.043Z,973.87
2022-09-28T03:19:52.017Z,973.91
2022-09-28T03:20:51.977Z,973.94
2022-09-28T03:21:51.973Z,973.96
2022-09-28T03:23:12.459Z,973.93
2022-09-28T03:23:51.899Z,973.88
2022-09-28T03:24:51.884Z,973.87
2022-09-28T03:25:51.861Z,973.88
2022-09-28T03:26:51.837Z,973.84
2022-09-28T03:27:51.819Z,973.90
2022-09-28T03:28:51.785Z,973.90
2022-09-28T03:29:51.761Z,973.89
2022-09-28T03:30:51.747Z,973.83
2022-09-28T03:31:51.764Z,973.89
2022-09-28T03:32:51.709Z,973.89
2022-09-28T03:33:51.667Z,973.87
2022-09-28T03:34:51.650Z,973.84
2022-09-28T03:35:51.614Z,973.86
2022-09-28T03:36:51.594Z,973.85
2022-09-28T03:37:51.568Z,973.82
2022-09-28T03:38:51.549Z,973.84
2022-09-28T03:39:51.518Z,973.90
2022-09-28T03:40:51.554Z,973.90
2022-09-28T03:41:51.476Z,973.86
2022-09-28T03:42:51.454Z,973.89
2022-09-28T03:43:51.424Z,973.88
2022-09-28T03:44:51.418Z,973.84
2022-09-28T03:45:51.438Z,973.84
2022-09-28T03:46:51.359Z,973.81
2022-09-28T03:47:51.338Z,973.90
2022-09-28T03:48:51.332Z,973.93
2022-09-28T03:49:51.282Z,973.95
2022-09-28T03:50:51.263Z,973.94
2022-09-28T03:51:51.249Z,973.93
2022-09-28T03:52:51.211Z,973.90
2022-09-28T03:53:51.188Z,973.91
2022-09-28T03:54:51.169Z,973.90
2022-09-28T03:55:51.154Z,973.90
2022-09-28T03:56:51.121Z,973.91
2022-09-28T03:57:51.094Z,973.98
2022-09-28T03:58:51.065Z,973.95
2022-09-28T03:59:51.042Z,973.94
2022-09-28T04:00:51.122Z,974.00
2022-09-28T04:01:51.027Z,973.99
2022-09-28T04:02:50.970Z,974.03
2022-09-28T04:03:50.946Z,973.93
2022-09-28T04:04:50.952Z,973.86
2022-09-28T04:05:50.905Z,973.85
2022-09-28T04:06:50.878Z,973.90
2022-09-28T04:07:50.853Z,973.89
2022-09-28T04:08:50.857Z,973.85
2022-09-28T04:09:50.806Z,973.89
2022-09-28T04:10:50.809Z,973.90
2022-09-28T04:12:03.300Z,973.97
2022-09-28T04:12:50.736Z,973.95
2022-09-28T04:13:50.713Z,973.98
2022-09-28T04:14:50.717Z,973.94
2022-09-28T04:15:50.672Z,973.99
2022-09-28T04:16:50.678Z,974.00
2022-09-28T04:17:50.619Z,974.04
2022-09-28T04:18:50.610Z,974.01
2022-09-28T04:19:50.571Z,974.03
2022-09-28T04:20:50.534Z,974.03
2022-09-28T04:21:50.519Z,973.98
2022-09-28T04:22:50.532Z,973.97
2022-09-28T04:23:50.467Z,973.95
2022-09-28T04:24:50.449Z,973.94
2022-09-28T04:25:50.466Z,974.00
2022-09-28T04:26:50.400Z,974.01
2022-09-28T04:27:50.386Z,974.02
2022-09-28T04:28:50.367Z,974.01
2022-09-28T04:29:50.326Z,974.04
2022-09-28T04:30:50.308Z,974.01
2022-09-28T04:31:50.293Z,974.05
2022-09-28T04:32:50.257Z,974.05
2022-09-28T04:33:50.234Z,974.06
2022-09-28T04:34:50.216Z,974.08
2022-09-28T04:35:50.181Z,974.12
2022-09-28T04:36:50.166Z,974.07
2022-09-28T04:37:50.135Z,974.09
2022-09-28T04:38:53.130Z,974.11
2022-09-28T04:39:50.099Z,974.10
2022-09-28T04:40:50.140Z,974.07
2022-09-28T04:41:50.041Z,974.10
2022-09-28T04:42:50.025Z,974.06
2022-09-28T04:43:49.995Z,974.07
2022-09-28T04:44:49.985Z,974.06
2022-09-28T04:45:50.017Z,974.10
2022-09-28T04:46:49.928Z,974.06
2022-09-28T04:47:49.900Z,974.09
2022-09-28T04:48:49.922Z,974.09
2022-09-28T04:49:49.852Z,974.08
2022-09-28T04:50:49.825Z,974.08
2022-09-28T04:51:49.798Z,974.12
2022-09-28T04:52:49.783Z,974.13
2022-09-28T04:53:49.756Z,974.14
2022-09-28T04:54:49.748Z,974.08
2022-09-28T04:55:49.717Z,974.08
2022-09-28T04:56:49.692Z,974.08
2022-09-28T04:57:49.658Z,974.04
2022-09-28T04:58:52.743Z,974.12
2022-09-28T04:59:49.611Z,974.10
2022-09-28T05:00:49.661Z,974.09
2022-09-28T05:01:49.632Z,974.11
2022-09-28T05:02:49.552Z,974.11
2022-09-28T05:03:49.527Z,974.11
2022-09-28T05:04:49.549Z,974.11
2022-09-28T05:05:49.467Z,974.14
2022-09-28T05:06:49.482Z,974.19
2022-09-28T05:07:49.494Z,974.23
2022-09-28T05:08:49.426Z,974.22
2022-09-28T05:09:49.430Z,974.25
2022-09-28T05:10:49.377Z,974.27
2022-09-28T05:11:49.324Z,974.29
2022-09-28T05:12:49.326Z,974.31
2022-09-28T05:13:49.282Z,974.30
2022-09-28T05:14:49.248Z,974.31
2022-09-28T05:15:50.506Z,974.30
2022-09-28T05:16:49.246Z,974.31
2022-09-28T05:17:49.177Z,974.31
2022-09-28T05:18:49.173Z,974.31
2022-09-28T05:19:49.140Z,974.33
2022-09-28T05:20:49.108Z,974.40
2022-09-28T05:21:49.077Z,974.40
2022-09-28T05:22:49.061Z,974.42
2022-09-28T05:23:49.035Z,974.41
2022-09-28T05:24:49.006Z,974.43
2022-09-28T05:25:49.006Z,974.44
2022-09-28T05:26:48.959Z,974.42
2022-09-28T05:27:48.933Z,974.45
2022-09-28T05:28:48.913Z,974.42
2022-09-28T05:29:48.882Z,974.42
2022-09-28T05:30:48.862Z,974.42
2022-09-28T05:31:49.009Z,974.44
2022-09-28T05:32:48.812Z,974.45
2022-09-28T05:33:48.788Z,974.46
2022-09-28T05:34:48.761Z,974.46
2022-09-28T05:35:53.302Z,974.48
2022-09-28T05:36:48.744Z,974.48
2022-09-28T05:37:48.690Z,974.49
2022-09-28T05:38:48.673Z,974.49
2022-09-28T05:39:48.641Z,974.55
2022-09-28T05:40:48.683Z,974.58
2022-09-28T05:41:48.609Z,974.60
2022-09-28T05:42:48.575Z,974.60
2022-09-28T05:43:48.551Z,974.66
2022-09-28T05:44:48.566Z,974.67
2022-09-28T05:45:51.632Z,974.66
2022-09-28T05:46:48.477Z,974.67
2022-09-28T05:47:48.449Z,974.67
2022-09-28T05:48:48.507Z,974.62
2022-09-28T05:49:48.408Z,974.65
2022-09-28T05:50:48.439Z,974.68
2022-09-28T05:51:48.455Z,974.65
2022-09-28T05:52:48.341Z,974.65
2022-09-28T05:53:48.339Z,974.67
2022-09-28T05:54:48.297Z,974.69
2022-09-28T05:55:48.282Z,974.69
2022-09-28T05:56:48.251Z,974.69
2022-09-28T05:57:48.295Z,974.73
2022-09-28T05:58:48.191Z,974.75
2022-09-28T05:59:48.206Z,974.75
2022-09-28T06:00:48.224Z,974.77
2022-09-28T06:01:48.121Z,974.75
2022-09-28T06:02:48.183Z,974.75
2022-09-28T06:03:48.069Z,974.75
2022-09-28T06:04:48.042Z,974.79
2022-09-28T06:05:48.028Z,974.79
2022-09-28T06:06:48.003Z,974.80
2022-09-28T06:07:47.977Z,974.82
2022-09-28T06:08:47.961Z,974.82
2022-09-28T06:09:47.923Z,974.83
2022-09-28T06:10:47.905Z,974.86
2022-09-28T06:11:47.873Z,974.88
2022-09-28T06:12:47.865Z,974.93
2022-09-28T06:13:47.863Z,974.89
2022-09-28T06:14:47.814Z,974.90
2022-09-28T06:15:47.786Z,974.87
2022-09-28T06:16:47.798Z,974.90
2022-09-28T06:17:47.739Z,974.90
2022-09-28T06:18:47.715Z,974.87
2022-09-28T06:19:47.684Z,974.87
2022-09-28T06:20:47.664Z,974.87
2022-09-28T06:21:47.655Z,974.89
2022-09-28T06:22:47.611Z,974.89
2022-09-28T06:23:49.347Z,974.87
2022-09-28T06:24:47.580Z,974.90
2022-09-28T06:25:47.545Z,974.92
2022-09-28T06:26:47.515Z,974.92
2022-09-28T06:27:47.499Z,974.98
2022-09-28T06:28:47.487Z,975.00
2022-09-28T06:29:47.448Z,975.02
2022-09-28T06:30:47.476Z,974.99
2022-09-28T06:31:47.413Z,975.05
2022-09-28T06:32:47.381Z,975.02
2022-09-28T06:33:47.353Z,975.01
2022-09-28T06:34:47.347Z,975.08
2022-09-28T06:35:47.308Z,975.08
2022-09-28T06:36:47.287Z,975.08
2022-09-28T06:37:47.263Z,975.07
2022-09-28T06:38:47.368Z,975.10
2022-09-28T06:39:47.355Z,975.14
2022-09-28T06:40:47.238Z,975.14
2022-09-28T06:41:47.268Z,975.12
2022-09-28T06:42:47.155Z,975.20
2022-09-28T06:43:47.214Z,975.16
2022-09-28T06:44:47.216Z,975.15
2022-09-28T06:45:47.158Z,975.13
2022-09-28T06:46:47.065Z,975.12
2022-09-28T06:47:47.028Z,975.13
2022-09-28T06:48:47.066Z,975.12
2022-09-28T06:49:47.052Z,975.13
2022-09-28T06:50:47.015Z,975.15
2022-09-28T06:51:47.033Z,975.16
2022-09-28T06:52:47.066Z,975.15
2022-09-28T06:53:46.886Z,975.18
2022-09-28T06:54:46.953Z,975.17
2022-09-28T06:55:46.913Z,975.20
2022-09-28T06:56:46.895Z,975.20
2022-09-28T06:57:46.805Z,975.22
2022-09-28T06:59:46.748Z,975.27
2022-09-28T07:00:46.941Z,975.24
2022-09-28T07:02:46.758Z,975.34
2022-09-28T07:03:46.667Z,975.36
2022-09-28T07:04:46.729Z,975.33
2022-09-28T07:05:46.738Z,975.39
2022-09-28T07:06:46.597Z,975.42
2022-09-28T07:07:46.554Z,975.41
2022-09-28T07:08:51.423Z,975.45
2022-09-28T07:09:50.302Z,975.46
2022-09-28T07:10:46.494Z,975.47
2022-09-28T07:11:46.460Z,975.47
2022-09-28T07:12:46.433Z,975.46
2022-09-28T07:13:50.805Z,975.51
2022-09-28T07:14:48.138Z,975.52
2022-09-28T07:15:46.471Z,975.52
2022-09-28T07:17:09.510Z,975.55
2022-09-28T07:17:59.153Z,975.60
2022-09-28T07:18:46.306Z,975.61
2022-09-28T07:19:46.302Z,975.58
2022-09-28T07:20:53.678Z,975.62
2022-09-28T07:21:54.335Z,975.62
2022-09-28T07:22:46.215Z,975.60
2022-09-28T07:23:53.359Z,975.65
2022-09-28T07:24:46.206Z,975.62
2022-09-28T07:25:46.159Z,975.67
2022-09-28T07:26:46.110Z,975.71
2022-09-28T07:27:46.087Z,975.70
2022-09-28T07:28:46.061Z,975.73
2022-09-28T07:29:46.038Z,975.71
2022-09-28T07:30:46.054Z,975.74
2022-09-28T07:31:46.005Z,975.79
2022-09-28T07:32:45.973Z,975.83
2022-09-28T07:33:46.034Z,975.79
2022-09-28T07:34:45.924Z,975.83
2022-09-28T07:35:45.986Z,975.84
2022-09-28T07:36:45.884Z,975.83
2022-09-28T07:37:45.881Z,975.88
2022-09-28T07:38:45.893Z,975.86
2022-09-28T07:40:48.383Z,975.88
2022-09-28T07:41:45.822Z,975.90
2022-09-28T07:42:45.824Z,975.92
2022-09-28T07:43:45.734Z,975.92
2022-09-28T07:44:45.697Z,975.93
2022-09-28T07:45:45.742Z,975.94
2022-09-28T07:46:45.665Z,975.96
2022-09-28T07:47:45.631Z,975.98
2022-09-28T07:48:45.864Z,976.00
2022-09-28T07:49:45.698Z,975.97
2022-09-28T07:50:45.568Z,976.04
2022-09-28T07:52:45.519Z,976.09
2022-09-28T07:53:45.576Z,976.14
2022-09-28T07:54:45.588Z,976.16
2022-09-28T07:55:45.446Z,976.16
2022-09-28T07:56:45.422Z,976.17
2022-09-28T07:57:45.457Z,976.23
2022-09-28T07:58:45.474Z,976.22
2022-09-28T07:59:45.364Z,976.20
2022-09-28T08:00:45.320Z,976.25
2022-09-28T08:01:45.342Z,976.30
2022-09-28T08:02:45.359Z,976.27
2022-09-28T08:03:45.253Z,976.30
2022-09-28T08:04:45.245Z,976.31
2022-09-28T08:05:45.204Z,976.27
2022-09-28T08:06:45.206Z,976.30
2022-09-28T08:07:45.158Z,976.34
2022-09-28T08:08:45.152Z,976.36
2022-09-28T08:09:45.109Z,976.36
2022-09-28T08:10:47.341Z,976.38
2022-09-28T08:11:45.093Z,976.39
2022-09-28T08:12:45.047Z,976.35
2022-09-28T08:13:45.047Z,976.39
2022-09-28T08:14:44.996Z,976.38
2022-09-28T08:15:45.005Z,976.34
2022-09-28T08:16:44.957Z,976.37
2022-09-28T08:17:44.930Z,976.38
2022-09-28T08:18:44.922Z,976.40
2022-09-28T08:19:44.885Z,976.35
2022-09-28T08:20:48.125Z,976.41
2022-09-28T08:21:44.848Z,976.43
2022-09-28T08:22:44.822Z,976.47
2022-09-28T08:23:44.844Z,976.44
2022-09-28T08:24:44.786Z,976.47
2022-09-28T08:25:44.757Z,976.48
2022-09-28T08:26:44.727Z,976.51
2022-09-28T08:27:44.712Z,976.50
2022-09-28T08:28:44.690Z,976.51
2022-09-28T08:29:44.677Z,976.49
2022-09-28T08:30:44.673Z,976.50
2022-09-28T08:31:44.628Z,976.45
2022-09-28T08:32:44.600Z,976.49
2022-09-28T08:33:44.578Z,976.53
2022-09-28T08:34:44.592Z,976.58
2022-09-28T08:35:44.529Z,976.58
2022-09-28T08:36:44.528Z,976.62
2022-09-28T08:37:49.872Z,976.60
2022-09-28T08:38:44.468Z,976.59
2022-09-28T08:39:44.443Z,976.59
2022-09-28T08:40:44.472Z,976.60
2022-09-28T08:41:44.403Z,976.63
2022-09-28T08:42:44.382Z,976.57
2022-09-28T08:43:44.365Z,976.58
2022-09-28T08:45:44.370Z,976.56
2022-09-28T08:46:44.326Z,976.58
2022-09-28T08:47:44.289Z,976.59
2022-09-28T08:48:52.229Z,976.63
2022-09-28T08:49:44.369Z,976.67
2022-09-28T08:50:44.252Z,976.68
2022-09-28T08:51:44.222Z,976.70
2022-09-28T08:52:44.227Z,976.71
2022-09-28T08:53:44.151Z,976.69
2022-09-28T08:54:44.161Z,976.69
2022-09-28T08:55:44.124Z,976.71
2022-09-28T08:57:44.089Z,976.73
2022-09-28T08:58:44.073Z,976.74
2022-09-28T08:59:44.013Z,976.73
2022-09-28T09:00:44.103Z,976.73
2022-09-28T09:01:43.996Z,976.71
2022-09-28T09:02:44.025Z,976.72
2022-09-28T09:03:43.927Z,976.79
2022-09-28T09:04:43.896Z,976.74
2022-09-28T09:05:43.868Z,976.78
2022-09-28T09:06:43.909Z,976.80
2022-09-28T09:07:43.888Z,976.82
2022-09-28T09:08:43.916Z,976.83
2022-09-28T09:09:43.787Z,976.83
2022-09-28T09:10:43.814Z,976.87
2022-09-28T09:11:43.737Z,976.91
2022-09-28T09:12:43.791Z,976.86
2022-09-28T09:13:43.717Z,976.84
2022-09-28T09:14:43.728Z,976.85
2022-09-28T09:15:43.645Z,976.90
2022-09-28T09:16:43.761Z,976.87
2022-09-28T09:18:43.749Z,976.89
2022-09-28T09:19:43.668Z,976.89
2022-09-28T09:20:43.606Z,976.90
2022-09-28T09:21:43.570Z,976.92
2022-09-28T09:22:43.508Z,976.92
2022-09-28T09:23:43.591Z,976.94
2022-09-28T09:24:43.510Z,976.87
2022-09-28T09:25:43.505Z,976.93
2022-09-28T09:26:43.604Z,976.89
2022-09-28T09:27:43.414Z,976.90
2022-09-28T09:28:43.423Z,976.94
2022-09-28T09:29:43.419Z,976.89
2022-09-28T09:30:43.485Z,976.91
2022-09-28T09:31:43.442Z,976.91
2022-09-28T09:32:43.324Z,976.94
2022-09-28T09:33:43.326Z,976.93
2022-09-28T09:34:43.264Z,976.98
2022-09-28T09:35:43.204Z,976.96
2022-09-28T09:36:43.186Z,977.00
2022-09-28T09:37:43.159Z,976.97
2022-09-28T09:38:43.163Z,977.00
2022-09-28T09:39:43.110Z,977.00
2022-09-28T09:40:43.201Z,976.98
2022-09-28T09:41:43.096Z,976.97
2022-09-28T09:42:43.082Z,976.96
2022-09-28T09:43:43.034Z,976.95
2022-09-28T09:44:43.004Z,977.01
2022-09-28T09:45:43.183Z,976.98
2022-09-28T09:46:43.013Z,976.97
2022-09-28T09:47:42.945Z,976.99
2022-09-28T09:48:42.935Z,977.01
2022-09-28T09:49:42.903Z,977.00
2022-09-28T09:50:42.876Z,976.99
2022-09-28T09:51:42.853Z,977.01
2022-09-28T09:52:44.366Z,977.00
2022-09-28T09:53:42.803Z,976.96
2022-09-28T09:54:42.796Z,977.04
2022-09-28T09:55:42.760Z,977.03
2022-09-28T09:56:42.739Z,977.06
2022-09-28T09:57:42.744Z,977.03
2022-09-28T09:58:42.692Z,977.04
2022-09-28T09:59:42.727Z,977.04
2022-09-28T10:00:42.647Z,977.08
2022-09-28T10:01:42.691Z,977.06
2022-09-28T10:02:42.709Z,977.04
2022-09-28T10:03:42.588Z,977.04
2022-09-28T10:04:42.564Z,977.05
2022-09-28T10:05:42.542Z,977.04
2022-09-28T10:06:42.545Z,977.04
2022-09-28T10:07:43.566Z,976.97
2022-09-28T10:08:42.473Z,977.00
2022-09-28T10:09:42.474Z,977.00
2022-09-28T10:10:42.435Z,977.03
2022-09-28T10:11:42.413Z,977.06
2022-09-28T10:12:42.403Z,977.07
2022-09-28T10:13:42.373Z,977.06
2022-09-28T10:14:42.362Z,977.09
2022-09-28T10:15:42.344Z,977.07
2022-09-28T10:16:42.396Z,977.06
2022-09-28T10:17:42.326Z,977.03
2022-09-28T10:18:42.277Z,977.09
2022-09-28T10:19:42.266Z,977.08
2022-09-28T10:20:42.238Z,977.13
2022-09-28T10:21:42.233Z,977.11
2022-09-28T10:22:42.217Z,977.12
2022-09-28T10:23:42.211Z,977.13
2022-09-28T10:24:42.171Z,977.12
2022-09-28T10:25:42.149Z,977.12
2022-09-28T10:26:42.132Z,977.14
2022-09-28T10:27:42.119Z,977.10
2022-09-28T10:28:42.102Z,977.15
2022-09-28T10:29:42.069Z,977.19
2022-09-28T10:30:42.166Z,977.19
2022-09-28T10:31:42.149Z,977.20
2022-09-28T10:32:42.076Z,977.22
2022-09-28T10:33:42.001Z,977.19
2022-09-28T10:34:42.008Z,977.18
2022-09-28T10:35:41.975Z,977.19
2022-09-28T10:36:41.972Z,977.19
2022-09-28T10:37:41.964Z,977.18
2022-09-28T10:38:41.920Z,977.17
2022-09-28T10:39:41.892Z,977.20
2022-09-28T10:40:41.917Z,977.18
2022-09-28T10:41:41.855Z,977.17
2022-09-28T10:42:41.832Z,977.19
2022-09-28T10:43:41.806Z,977.16
2022-09-28T10:44:41.801Z,977.23
2022-09-28T10:45:41.808Z,977.19
2022-09-28T10:46:41.838Z,977.18
2022-09-28T10:47:41.733Z,977.20
2022-09-28T10:48:41.712Z,977.16
2022-09-28T10:49:46.539Z,977.19
2022-09-28T10:50:41.679Z,977.21
2022-09-28T10:51:41.650Z,977.22
2022-09-28T10:52:41.634Z,977.23
2022-09-28T10:53:41.618Z,977.22
2022-09-28T10:54:41.614Z,977.23
2022-09-28T10:55:41.573Z,977.24
2022-09-28T10:56:41.554Z,977.24
2022-09-28T10:57:41.541Z,977.26
2022-09-28T10:58:41.515Z,977.29
2022-09-28T10:59:41.495Z,977.26
2022-09-28T11:00:41.470Z,977.26
2022-09-28T11:01:41.513Z,977.21
2022-09-28T11:02:41.495Z,977.24
2022-09-28T11:03:41.421Z,977.25
2022-09-28T11:04:41.399Z,977.30
2022-09-28T11:05:41.386Z,977.30
2022-09-28T11:06:41.364Z,977.27
2022-09-28T11:07:41.350Z,977.26
2022-09-28T11:08:41.313Z,977.27
2022-09-28T11:09:41.338Z,977.25
2022-09-28T11:10:41.269Z,977.28
2022-09-28T11:11:41.261Z,977.29
2022-09-28T11:12:41.239Z,977.26
2022-09-28T11:13:41.221Z,977.26
2022-09-28T11:14:42.655Z,977.27
2022-09-28T11:15:41.169Z,977.29
2022-09-28T11:16:41.205Z,977.21
2022-09-28T11:17:41.133Z,977.22
2022-09-28T11:18:41.117Z,977.25
2022-09-28T11:19:41.086Z,977.24
2022-09-28T11:20:44.227Z,977.24
2022-09-28T11:21:41.047Z,977.23
2022-09-28T11:22:41.027Z,977.24
2022-09-28T11:23:40.995Z,977.27
2022-09-28T11:24:40.996Z,977.25
2022-09-28T11:25:40.955Z,977.23
2022-09-28T11:26:40.941Z,977.26
2022-09-28T11:27:40.914Z,977.23
2022-09-28T11:28:40.888Z,977.24
2022-09-28T11:29:40.873Z,977.26
2022-09-28T11:30:40.983Z,977.26
2022-09-28T11:31:40.851Z,977.26
2022-09-28T11:32:40.819Z,977.26
2022-09-28T11:33:40.782Z,977.20
2022-09-28T11:34:58.605Z,977.25
2022-09-28T11:35:40.748Z,977.21
2022-09-28T11:36:40.715Z,977.27
2022-09-28T11:37:40.708Z,977.21
2022-09-28T11:38:40.699Z,977.21
2022-09-28T11:39:40.681Z,977.20
2022-09-28T11:40:40.750Z,977.23
2022-09-28T11:41:40.601Z,977.20
2022-09-28T11:42:40.580Z,977.23
2022-09-28T11:43:40.557Z,977.25
2022-09-28T11:44:40.532Z,977.27
2022-09-28T11:45:40.543Z,977.27
2022-09-28T11:46:40.493Z,977.30
2022-09-28T11:47:40.470Z,977.31
2022-09-28T11:48:40.455Z,977.29
2022-09-28T11:49:40.441Z,977.28
2022-09-28T11:50:40.419Z,977.28
2022-09-28T11:51:40.393Z,977.31
2022-09-28T11:52:40.381Z,977.30
2022-09-28T11:53:40.351Z,977.31
2022-09-28T11:54:40.348Z,977.35
2022-09-28T11:55:40.332Z,977.31
2022-09-28T11:56:40.302Z,977.28
2022-09-28T11:57:40.275Z,977.33
2022-09-28T11:58:40.268Z,977.32
2022-09-28T11:59:40.238Z,977.33
2022-09-28T12:00:40.241Z,977.29
2022-09-28T12:01:40.213Z,977.27
2022-09-28T12:02:40.284Z,977.34
2022-09-28T12:03:40.332Z,977.33
2022-09-28T12:04:40.154Z,977.36
2022-09-28T12:05:40.133Z,977.35
2022-09-28T12:06:40.118Z,977.36
2022-09-28T12:07:40.094Z,977.34
2022-09-28T12:08:40.086Z,977.33
2022-09-28T12:09:40.059Z,977.30
2022-09-28T12:10:44.677Z,977.28
2022-09-28T12:11:40.038Z,977.33
2022-09-28T12:12:40.012Z,977.33
2022-09-28T12:13:39.994Z,977.29
2022-09-28T12:14:39.967Z,977.34
2022-09-28T12:15:59.573Z,977.34
2022-09-28T12:17:04.385Z,977.30
2022-09-28T12:17:39.955Z,977.33
2022-09-28T12:18:39.904Z,977.34
2022-09-28T12:19:39.898Z,977.27
2022-09-28T12:20:39.886Z,977.34
2022-09-28T12:21:39.857Z,977.39
2022-09-28T12:22:39.842Z,977.36
2022-09-28T12:23:39.846Z,977.33
2022-09-28T12:24:39.814Z,977.35
2022-09-28T12:25:39.772Z,977.30
2022-09-28T12:26:39.760Z,977.31
2022-09-28T12:27:39.772Z,977.33
2022-09-28T12:28:39.739Z,977.34
2022-09-28T12:29:39.712Z,977.38
2022-09-28T12:30:39.770Z,977.34
2022-09-28T12:31:39.679Z,977.38
2022-09-28T12:32:39.659Z,977.38
2022-09-28T12:33:39.638Z,977.34
2022-09-28T12:34:39.636Z,977.32
2022-09-28T12:35:39.610Z,977.30
2022-09-28T12:36:39.610Z,977.33